Time;durP1;ratioP1;P1;durP2;ratioP2;P2;SDS_P1;SDS_P2;PMS_P1;PMS_P2;Temp;Humidity;BMP_temperature;BMP_pressure;BME280_temperature;BME280_humidity;BME280_pressure;Samples;Min_cycle;Max_cycle;Signal;HPM_P1;HPM_P2
2021/12/18 00:02:25;687600.00;2.29;1185.74;74444.00;0.25;129.44;;;;;9.80;1.00;;;;;;2229568;62;1340;-88
2021/12/18 00:05:30;395265.00;1.32;681.67;0.00;0.00;0.62;;;;;10.20;1.00;;;;;;2233653;62;1999;-88
2021/12/18 00:14:07;575188.00;1.92;991.40;0.00;0.00;0.62;;;;;10.20;1.00;;;;;;2278050;61;1438;-89
2021/12/18 00:17:10;;;;;;;;;;;;;;;;;;;;;
2021/12/18 00:22:57;744866.00;2.48;1285.13;0.00;0.00;0.62;;;;;9.90;1.00;;;;;;2247658;61;998;-89
2021/12/18 00:29:16;430403.00;1.43;742.08;0.00;0.00;0.62;;;;;10.10;1.00;;;;;;2224144;62;1081;-88
2021/12/18 00:38:28;706927.00;2.36;1219.25;0.00;0.00;0.62;;;;;10.30;1.00;;;;;;2216864;62;1018;-88
2021/12/18 00:44:38;494638.00;1.65;852.59;0.00;0.00;0.62;;;;;10.50;1.00;;;;;;2213604;62;1921;-86
2021/12/18 00:47:45;506022.00;1.69;872.19;98736.00;0.33;171.39;;;;;10.60;1.00;;;;;;2216432;62;1037;-86
2021/12/18 00:50:31;740105.00;2.47;1276.86;0.00;0.00;0.62;;;;;10.60;1.00;;;;;;2210795;62;1368;-87
2021/12/18 00:53:20;383558.00;1.28;661.54;0.00;0.00;0.62;;;;;10.60;1.00;;;;;;2214208;62;1060;-88
2021/12/18 00:55:59;317336.00;1.06;547.72;0.00;0.00;0.62;;;;;10.70;1.00;;;;;;2216260;62;945;-88
2021/12/18 00:58:48;311034.00;1.04;536.89;0.00;0.00;0.62;;;;;10.60;1.00;;;;;;2216526;62;1158;-88
2021/12/18 01:04:52;645539.00;2.15;1112.92;85717.00;0.29;148.91;;;;;10.50;1.00;;;;;;2225932;62;1917;-88
2021/12/18 01:24:01;497073.00;1.66;856.78;0.00;0.00;0.62;;;;;9.10;1.00;;;;;;2219743;62;1080;-88
2021/12/18 01:29:47;378944.00;1.26;653.61;0.00;0.00;0.62;;;;;9.50;1.00;;;;;;2224922;62;1178;-88
2021/12/18 01:36:09;783179.00;2.61;1351.80;95230.00;0.32;165.34;;;;;9.50;1.00;;;;;;2223366;62;1178;-88
2021/12/18 01:39:03;388934.00;1.30;670.78;0.00;0.00;0.62;;;;;9.70;1.00;;;;;;2219525;62;1012;-88
2021/12/18 01:42:01;418676.00;1.40;721.91;0.00;0.00;0.62;;;;;9.50;1.00;;;;;;2211583;62;1315;-89
2021/12/18 01:44:59;395502.00;1.32;682.07;0.00;0.00;0.62;;;;;9.30;1.00;;;;;;2213051;62;2019;-89
2021/12/18 01:53:39;837655.00;2.79;1446.88;93103.00;0.31;161.67;;;;;9.40;1.00;;;;;;2227463;62;1052;-88
2021/12/18 01:56:19;749904.00;2.50;1293.89;68052.00;0.23;118.39;;;;;9.00;1.00;;;;;;2229170;62;982;-88
2021/12/18 01:58:48;1029246.00;3.43;1784.34;82465.00;0.27;143.30;;;;;8.70;1.00;;;;;;2236784;61;1051;-87
2021/12/18 02:08:09;432545.00;1.44;745.76;0.00;0.00;0.62;;;;;8.70;1.00;;;;;;2230489;62;1106;-88
2021/12/18 02:10:51;695409.00;2.32;1199.28;88881.00;0.30;154.38;;;;;9.10;1.00;;;;;;2250858;61;1316;-89
2021/12/18 02:13:59;786732.00;2.62;1357.99;93607.00;0.31;162.54;;;;;9.00;1.00;;;;;;2251352;61;1068;-88
2021/12/18 02:20:10;445494.00;1.48;768.03;114629.00;0.38;198.82;;;;;9.10;1.00;;;;;;2253618;61;1065;-88
2021/12/18 02:26:46;428558.00;1.43;738.91;0.00;0.00;0.62;;;;;8.80;1.00;;;;;;2239743;62;1931;-88
2021/12/18 02:29:37;449602.00;1.50;775.10;0.00;0.00;0.62;;;;;9.10;1.00;;;;;;2226455;62;1102;-88
2021/12/18 02:35:04;964357.00;3.21;1669.44;101867.00;0.34;176.79;;;;;9.20;1.00;;;;;;2252165;61;1021;-87
2021/12/18 02:38:07;1232696.00;4.11;2149.45;0.00;0.00;0.62;;;;;9.10;1.00;;;;;;2251655;61;1018;-89
2021/12/18 02:48:38;1182464.00;3.94;2058.55;4287.00;0.01;8.05;;;;;9.10;1.00;;;;;;2273996;61;1224;-89
2021/12/18 02:51:49;395789.00;1.32;682.57;0.00;0.00;0.62;;;;;8.90;1.00;;;;;;2267983;61;1340;-88
2021/12/18 02:54:26;502108.00;1.67;865.45;0.00;0.00;0.62;;;;;9.20;1.00;;;;;;2263889;61;1017;-89
2021/12/18 03:03:05;644032.00;2.15;1110.31;0.00;0.00;0.62;;;;;9.00;1.00;;;;;;2274488;61;1262;-88
2021/12/18 03:24:29;838432.00;2.79;1448.23;10619.00;0.04;19.02;;;;;8.40;1.00;;;;;;2259535;61;1914;-88
2021/12/18 03:27:02;1178985.00;3.93;2052.27;49471.00;0.16;86.27;;;;;8.40;1.00;;;;;;2247816;61;946;-87
2021/12/18 03:29:49;1136795.00;3.79;1976.35;109758.00;0.37;190.41;;;;;8.30;1.00;;;;;;2239678;62;1018;-87
2021/12/18 03:32:23;1034051.00;3.45;1792.87;100622.00;0.34;174.65;;;;;8.50;1.00;;;;;;2236054;62;1007;-88
2021/12/18 03:35:26;591699.00;1.97;1019.89;0.00;0.00;0.62;;;;;8.50;1.00;;;;;;2236023;62;1758;-89
2021/12/18 03:37:58;540797.00;1.80;932.10;0.00;0.00;0.62;;;;;8.50;1.00;;;;;;2232112;62;989;-88
2021/12/18 03:40:35;623306.00;2.08;1074.48;0.00;0.00;0.62;;;;;8.80;1.00;;;;;;2231987;62;1667;-88
2021/12/18 03:43:11;465560.00;1.55;802.55;0.00;0.00;0.62;;;;;8.80;1.00;;;;;;2235936;62;925;-87
2021/12/18 03:46:16;483349.00;1.61;833.16;0.00;0.00;0.62;;;;;9.00;1.00;;;;;;2238907;62;1933;-88
2021/12/18 03:48:55;677610.00;2.26;1168.43;138284.00;0.46;239.61;;;;;9.20;1.00;;;;;;2251173;61;1476;-87
2021/12/18 03:52:00;897057.00;2.99;1550.95;92038.00;0.31;159.83;;;;;9.10;1.00;;;;;;2251710;61;1499;-88
2021/12/18 03:54:36;604910.00;2.02;1042.70;0.00;0.00;0.62;;;;;8.90;1.00;;;;;;2251670;61;1615;-88
2021/12/18 03:57:33;546809.00;1.82;942.46;0.00;0.00;0.62;;;;;8.30;1.00;;;;;;2255425;61;1736;-88
2021/12/18 04:00:20;549791.00;1.83;947.60;0.00;0.00;0.62;;;;;7.90;1.00;;;;;;2255569;61;1541;-88
2021/12/18 04:03:09;714821.00;2.38;1232.95;11304.00;0.04;20.21;;;;;7.10;1.00;;;;;;2272112;61;1576;-88
2021/12/18 04:08:45;563696.00;1.88;971.57;101628.00;0.34;176.38;;;;;7.20;1.00;;;;;;2269572;61;1040;-88
2021/12/18 04:11:19;1280946.00;4.27;2237.28;98567.00;0.33;171.10;;;;;7.40;1.00;;;;;;2271553;61;1762;-89
2021/12/18 04:14:10;1127126.00;3.76;1959.00;0.00;0.00;0.62;;;;;7.40;1.00;;;;;;2271508;61;1736;-88
2021/12/18 04:16:43;736264.00;2.45;1270.18;0.00;0.00;0.62;;;;;7.60;1.00;;;;;;2271535;61;1498;-87
2021/12/18 04:22:25;713954.00;2.38;1231.44;0.00;0.00;0.62;;;;;8.30;1.00;;;;;;2271379;61;1699;-88
2021/12/18 04:25:20;665005.00;2.22;1146.60;6650.00;0.02;12.14;;;;;8.20;1.00;;;;;;2272101;61;1923;-88
2021/12/18 04:28:03;753451.00;2.51;1300.06;0.00;0.00;0.62;;;;;8.40;1.00;;;;;;2272036;61;1478;-87
2021/12/18 04:30:35;879699.00;2.93;1520.49;117035.00;0.39;202.97;;;;;8.70;1.00;;;;;;2271714;61;1576;-88
2021/12/18 04:33:17;708949.00;2.36;1222.76;89317.00;0.30;155.13;;;;;8.60;1.00;;;;;;2272073;61;1686;-88
2021/12/18 04:35:53;1252656.00;4.18;2185.72;159475.00;0.53;276.13;;;;;8.60;1.00;;;;;;2271936;61;1627;-88
2021/12/18 04:38:49;982233.00;3.27;1701.03;18025.00;0.06;31.85;;;;;7.50;1.00;;;;;;2272026;61;1454;-88
2021/12/18 04:41:37;849329.00;2.83;1467.29;0.00;0.00;0.62;;;;;6.60;1.00;;;;;;2271851;61;1491;-88
2021/12/18 04:47:41;466682.00;1.56;804.48;0.00;0.00;0.62;;;;;6.20;1.00;;;;;;2259530;61;1036;-88
2021/12/18 04:50:23;887045.00;2.96;1533.38;102874.00;0.34;178.53;;;;;6.10;1.00;;;;;;2251474;61;1487;-88
2021/12/18 04:52:54;995734.00;3.32;1724.92;84875.00;0.28;147.46;;;;;5.80;1.00;;;;;;2239698;62;937;-88
2021/12/18 04:55:36;1023759.00;3.41;1774.60;105814.00;0.35;183.61;;;;;6.00;1.00;;;;;;2239617;62;1707;-88
2021/12/18 04:58:27;1071271.00;3.57;1859.12;70630.00;0.24;122.85;;;;;6.20;1.00;;;;;;2239533;62;1620;-88
2021/12/18 05:01:22;486390.00;1.62;838.40;0.00;0.00;0.62;;;;;5.70;1.00;;;;;;2239381;62;1324;-86
2021/12/18 05:13:41;252729.00;0.84;436.64;23704.00;0.08;41.68;;;;;5.70;1.00;;;;;;2273463;61;1411;-85
2021/12/18 05:33:24;102704.00;0.34;178.24;0.00;0.00;0.62;;;;;7.20;1.00;;;;;;2269175;61;1471;-85
2021/12/18 05:43:16;146321.00;0.49;253.47;0.00;0.00;0.62;;;;;7.80;1.00;;;;;;2273497;61;1431;-84
2021/12/18 05:45:47;249156.00;0.83;430.50;0.00;0.00;0.62;;;;;7.60;1.00;;;;;;2492312;40;3688;31
2021/12/18 06:32:35;89660.00;0.30;155.72;0.00;0.00;0.62;;;;;5.30;1.00;;;;;;2503433;40;3461;31
2021/12/18 06:59:50;161218.00;0.54;279.14;0.00;0.00;0.62;;;;;6.00;1.00;;;;;;2432862;40;3777;31
2021/12/18 07:04:46;157087.00;0.52;272.02;0.00;0.00;0.62;;;;;6.90;1.00;;;;;;2505164;40;3587;31
2021/12/18 07:49:08;266807.00;0.89;460.85;0.00;0.00;0.62;;;;;6.40;1.00;;;;;;2274277;61;1390;-86
2021/12/18 07:58:58;342323.00;1.14;590.67;0.00;0.00;0.62;;;;;6.20;1.00;;;;;;2311792;40;3638;31
2021/12/18 08:50:55;133887.00;0.45;232.03;0.00;0.00;0.62;;;;;5.50;1.00;;;;;;2274787;61;1299;-86
2021/12/18 09:22:58;28754.00;0.10;50.43;0.00;0.00;0.62;;;;;6.00;1.00;;;;;;2508829;40;3631;31
2021/12/18 09:45:09;0.00;0.00;0.62;0.00;0.00;0.62;;;;;8.20;1.00;;;;;;2459448;40;3526;31
2021/12/18 09:57:27;59177.00;0.20;103.05;0.00;0.00;0.62;;;;;8.70;1.00;;;;;;2509290;40;3397;31
2021/12/18 10:07:21;133932.00;0.45;232.11;0.00;0.00;0.62;;;;;7.20;1.00;;;;;;2273748;61;1205;-84
2021/12/18 10:14:46;131243.00;0.44;227.47;0.00;0.00;0.62;;;;;8.00;1.00;;;;;;2274057;61;1433;-86
2021/12/18 11:16:38;472234.00;1.57;814.03;0.00;0.00;0.62;;;;;7.90;1.00;;;;;;2270432;61;1517;-90
2021/12/18 11:19:08;451018.00;1.50;777.53;46466.00;0.15;81.07;;;;;8.30;1.00;;;;;;2258299;61;945;-89
2021/12/18 11:21:36;530651.00;1.77;914.61;0.00;0.00;0.62;;;;;8.30;1.00;;;;;;2263522;61;1020;-90
2021/12/18 11:24:06;270652.00;0.90;467.46;0.00;0.00;0.62;;;;;8.50;1.00;;;;;;2263778;61;1341;-89
2021/12/18 11:26:41;420911.00;1.40;725.76;0.00;0.00;0.62;;;;;8.30;1.00;;;;;;2263967;61;1917;-89
2021/12/18 11:29:14;354543.00;1.18;611.67;0.00;0.00;0.62;;;;;7.90;1.00;;;;;;2257364;61;945;-88
2021/12/18 11:31:43;123187288.00;410.62;75732744.00;0.00;0.00;0.62;;;;;7.80;1.00;;;;;;2263985;61;1051;-89
2021/12/18 11:34:10;430747.00;1.44;742.67;0.00;0.00;0.62;;;;;7.50;1.00;;;;;;2260681;61;1422;-89
2021/12/18 11:36:41;390336.00;1.30;673.19;0.00;0.00;0.62;;;;;7.70;1.00;;;;;;2264085;61;1020;-90
2021/12/18 11:39:09;362055.00;1.21;624.58;0.00;0.00;0.62;;;;;7.90;1.00;;;;;;2265154;61;1090;-89
2021/12/18 11:44:29;550002.00;1.83;947.96;35160.00;0.12;61.51;;;;;7.70;1.00;;;;;;2274109;61;1309;-88
2021/12/18 11:46:58;375333.00;1.25;647.40;0.00;0.00;0.62;;;;;8.10;1.00;;;;;;2263825;61;1931;-90
2021/12/18 11:49:43;354103.00;1.18;610.91;0.00;0.00;0.62;;;;;7.90;1.00;;;;;;2263971;61;1024;-90
2021/12/18 11:52:10;419060.00;1.40;722.57;0.00;0.00;0.62;;;;;7.90;1.00;;;;;;2253987;61;1038;-89
2021/12/18 11:54:44;386566.00;1.29;666.71;0.00;0.00;0.62;;;;;7.80;1.00;;;;;;2263842;61;1310;-86
2021/12/18 11:57:13;412924.00;1.38;712.02;0.00;0.00;0.62;;;;;6.90;1.00;;;;;;2253979;61;982;-88
2021/12/18 11:59:42;302790.00;1.01;522.72;0.00;0.00;0.62;;;;;6.80;1.00;;;;;;2263341;61;1052;-89
2021/12/18 12:02:13;405140.00;1.35;698.64;0.00;0.00;0.62;;;;;6.90;1.00;;;;;;2263516;61;1031;-89
2021/12/18 12:05:01;259431.00;0.86;448.17;0.00;0.00;0.62;;;;;6.90;1.00;;;;;;2266215;61;1697;-89
2021/12/18 12:07:29;373341.00;1.24;643.98;0.00;0.00;0.62;;;;;6.90;1.00;;;;;;2263637;61;2019;-89
2021/12/18 12:10:21;373163.00;1.24;643.67;0.00;0.00;0.62;;;;;7.00;1.00;;;;;;2263513;61;993;-90
2021/12/18 12:12:54;314932.00;1.05;543.59;0.00;0.00;0.62;;;;;7.50;1.00;;;;;;2263474;61;1322;-89
2021/12/18 12:15:25;307703.00;1.03;531.16;0.00;0.00;0.62;;;;;7.80;1.00;;;;;;2263650;61;1043;-88
2021/12/18 12:17:58;583123.00;1.94;1005.09;0.00;0.00;0.62;;;;;7.80;1.00;;;;;;2253705;61;1074;-88
2021/12/18 12:20:41;454007.00;1.51;782.68;0.00;0.00;0.62;;;;;7.70;1.00;;;;;;2263875;61;1021;-89
2021/12/18 12:23:10;422907.00;1.41;729.19;0.00;0.00;0.62;;;;;7.60;1.00;;;;;;2263978;61;1416;-89
2021/12/18 12:25:46;355831.00;1.19;613.88;0.00;0.00;0.62;;;;;7.30;1.00;;;;;;2268468;61;1994;-88
2021/12/18 12:28:15;231822.00;0.77;400.68;0.00;0.00;0.62;;;;;7.10;1.00;;;;;;2272303;61;1135;-89
2021/12/18 12:30:47;310577.00;1.04;536.10;0.00;0.00;0.62;;;;;7.10;1.00;;;;;;2259679;61;986;-90
2021/12/18 12:33:24;527739.00;1.76;909.60;0.00;0.00;0.62;;;;;7.40;1.00;;;;;;2253232;61;1360;-89
2021/12/18 12:36:10;360492.00;1.20;621.89;24426.00;0.08;42.93;;;;;7.40;1.00;;;;;;2259847;61;981;-89
2021/12/18 12:38:40;561729.00;1.87;968.18;0.00;0.00;0.62;;;;;7.10;1.00;;;;;;2253192;61;971;-88
2021/12/18 12:41:33;523660.00;1.75;902.57;0.00;0.00;0.62;;;;;6.70;1.00;;;;;;2253230;61;988;-88
2021/12/18 12:44:04;322589.00;1.08;556.75;0.00;0.00;0.62;;;;;6.70;1.00;;;;;;2253062;61;1292;-88
2021/12/18 12:46:32;628323.00;2.09;1083.15;6700.00;0.02;12.23;;;;;7.10;1.00;;;;;;2253135;61;2006;-88
2021/12/18 12:49:07;508169.00;1.69;875.89;0.00;0.00;0.62;;;;;7.40;1.00;;;;;;2256628;61;1037;-89
2021/12/18 12:52:20;643533.00;2.15;1109.45;5558.00;0.02;10.25;;;;;7.10;1.00;;;;;;2263764;61;1671;-90
2021/12/18 12:55:03;382298.00;1.27;659.38;0.00;0.00;0.62;;;;;7.00;1.00;;;;;;2255503;61;1074;-90
2021/12/18 12:57:40;431822.00;1.44;744.52;0.00;0.00;0.62;;;;;7.00;1.00;;;;;;2266972;61;1162;-89
2021/12/18 13:00:35;128267440.00;427.56;85503856.00;0.00;0.00;0.62;;;;;6.90;1.00;;;;;;2267559;61;1568;-88
2021/12/18 13:03:14;422927.00;1.41;729.22;0.00;0.00;0.62;;;;;6.80;1.00;;;;;;2257852;61;1374;-90
2021/12/18 13:05:52;413950.00;1.38;713.79;0.00;0.00;0.62;;;;;7.00;1.00;;;;;;2261097;61;1923;-88
2021/12/18 13:08:32;;;;;;;;;;;;;;;;;;;;;
2021/12/18 13:11:00;362664.00;1.21;625.63;0.00;0.00;0.62;;;;;6.50;1.00;;;;;;2272339;61;973;-89
2021/12/18 13:13:31;472186.00;1.57;813.95;0.00;0.00;0.62;;;;;6.80;1.00;;;;;;2259619;61;1437;-86
2021/12/18 13:16:01;341662.00;1.14;589.53;0.00;0.00;0.62;;;;;6.70;1.00;;;;;;2253076;61;1020;-88
2021/12/18 13:18:31;356779.00;1.19;615.51;0.00;0.00;0.62;;;;;6.80;1.00;;;;;;2259679;61;1012;-89
2021/12/18 13:21:03;373579.00;1.25;644.39;0.00;0.00;0.62;;;;;6.70;1.00;;;;;;2256497;61;999;-88
2021/12/18 13:23:58;464985.00;1.55;801.56;0.00;0.00;0.62;;;;;6.70;1.00;;;;;;2253094;61;1479;-88
2021/12/18 13:26:32;256891.00;0.86;443.80;0.00;0.00;0.62;;;;;6.50;1.00;;;;;;2251755;61;2007;-89
2021/12/18 13:29:03;382418.00;1.27;659.58;0.00;0.00;0.62;;;;;6.60;1.00;;;;;;2251798;61;1034;-88
2021/12/18 13:31:34;314185.00;1.05;542.30;0.00;0.00;0.62;;;;;6.60;1.00;;;;;;2255507;61;1594;-89
2021/12/18 13:34:07;296630.00;0.99;512.13;0.00;0.00;0.62;;;;;6.60;1.00;;;;;;2249876;61;1445;-88
2021/12/18 13:36:55;419923.00;1.40;724.06;0.00;0.00;0.62;;;;;6.90;1.00;;;;;;2259465;61;1694;-88
2021/12/18 13:39:24;322928.00;1.08;557.33;0.00;0.00;0.62;;;;;6.60;1.00;;;;;;2259673;61;1777;-88
2021/12/18 13:46:56;580310.00;1.93;1000.23;0.00;0.00;0.62;;;;;6.00;1.00;;;;;;2269968;61;1965;-87
2021/12/18 13:49:30;399156.00;1.33;688.35;0.00;0.00;0.62;;;;;6.20;1.00;;;;;;2264320;61;1005;-87
2021/12/18 13:57:11;825636.00;2.75;1425.87;0.00;0.00;0.62;;;;;6.20;1.00;;;;;;2269876;61;1422;-89
2021/12/18 13:59:38;397716.00;1.33;685.88;0.00;0.00;0.62;;;;;6.40;1.00;;;;;;2268206;61;924;-88
2021/12/18 14:02:06;504106.00;1.68;868.89;47227.00;0.16;82.39;;;;;6.30;1.00;;;;;;2268095;61;1818;-89
2021/12/18 14:04:34;498701.00;1.66;859.59;0.00;0.00;0.62;;;;;6.40;1.00;;;;;;2267865;61;1354;-89
2021/12/18 14:07:01;493673.00;1.65;850.93;0.00;0.00;0.62;;;;;6.30;1.00;;;;;;2264277;61;1994;-86
2021/12/18 14:09:31;499384.00;1.66;860.76;0.00;0.00;0.62;;;;;6.10;1.00;;;;;;2268725;61;896;-88
2021/12/18 14:12:05;493628.00;1.65;850.85;0.00;0.00;0.62;;;;;6.10;1.00;;;;;;2264176;61;929;-89
2021/12/18 14:14:36;386557.00;1.29;666.70;0.00;0.00;0.62;;;;;5.90;1.00;;;;;;2264279;61;1400;-88
2021/12/18 14:17:06;561029.00;1.87;966.97;0.00;0.00;0.62;;;;;5.90;1.00;;;;;;2264157;61;1001;-88
2021/12/18 14:19:36;420025.00;1.40;724.23;0.00;0.00;0.62;;;;;5.80;1.00;;;;;;2252295;61;943;-89
2021/12/18 14:22:04;297000.00;0.99;512.76;0.00;0.00;0.62;;;;;6.10;1.00;;;;;;2252218;61;1071;-88
2021/12/18 14:24:32;434904.00;1.45;749.82;0.00;0.00;0.62;;;;;6.20;1.00;;;;;;2252300;61;1381;-87
2021/12/18 14:27:01;374934.00;1.25;646.72;0.00;0.00;0.62;;;;;6.00;1.00;;;;;;2252098;61;1997;-89
2021/12/18 14:29:32;448742.00;1.50;773.62;0.00;0.00;0.62;;;;;5.60;1.00;;;;;;2246699;61;963;-88
2021/12/18 14:32:01;545275.00;1.82;939.81;0.00;0.00;0.62;;;;;5.50;1.00;;;;;;2256294;61;919;-88
2021/12/18 14:34:40;664421.00;2.21;1145.59;0.00;0.00;0.62;;;;;5.60;1.00;;;;;;2256236;61;1365;-86
2021/12/18 14:37:10;316113.00;1.05;545.62;0.00;0.00;0.62;;;;;5.80;1.00;;;;;;2258538;61;1010;-88
2021/12/18 14:39:41;661109.00;2.20;1139.86;58415.00;0.19;101.74;;;;;5.80;1.00;;;;;;2257528;61;986;-88
2021/12/18 14:42:12;510892.00;1.70;880.58;0.00;0.00;0.62;;;;;5.70;1.00;;;;;;2260897;61;974;-88
2021/12/18 14:44:46;809645.00;2.70;1397.95;0.00;0.00;0.62;;;;;5.60;1.00;;;;;;2259599;61;961;-87
2021/12/18 14:47:21;626793.00;2.09;1080.51;0.00;0.00;0.62;;;;;5.80;1.00;;;;;;2268594;61;1916;-88
2021/12/18 14:50:11;549122.00;1.83;946.45;55496.00;0.18;96.69;;;;;6.10;1.00;;;;;;2268696;61;996;-87
2021/12/18 14:53:12;279442.00;0.93;482.58;0.00;0.00;0.62;;;;;5.80;1.00;;;;;;2264911;61;1445;-88
2021/12/18 14:55:48;368639.00;1.23;635.90;0.00;0.00;0.62;;;;;5.60;1.00;;;;;;2253547;61;1000;-87
2021/12/18 14:58:19;409492.00;1.36;706.12;0.00;0.00;0.62;;;;;5.60;1.00;;;;;;2253527;61;1026;-87
2021/12/18 15:00:51;307181.00;1.02;530.26;0.00;0.00;0.62;;;;;5.50;1.00;;;;;;2256943;61;1001;-88
2021/12/18 15:03:22;386149.00;1.29;665.99;0.00;0.00;0.62;;;;;5.30;1.00;;;;;;2260172;61;1447;-88
2021/12/18 15:06:04;350522.00;1.17;604.76;0.00;0.00;0.62;;;;;5.50;1.00;;;;;;2253563;61;1008;-88
2021/12/18 15:08:36;342117.00;1.14;590.31;0.00;0.00;0.62;;;;;5.60;1.00;;;;;;2260154;61;1009;-87
2021/12/18 15:11:16;576040.00;1.92;992.87;0.00;0.00;0.62;;;;;5.60;1.00;;;;;;2260113;61;1232;-88
2021/12/18 15:13:49;414916.00;1.38;715.45;0.00;0.00;0.62;;;;;5.50;1.00;;;;;;2253444;61;1351;-88
2021/12/18 15:16:28;805240.00;2.68;1390.26;0.00;0.00;0.62;;;;;5.40;1.00;;;;;;2260085;61;966;-89
2021/12/18 15:19:00;536527.00;1.79;924.74;0.00;0.00;0.62;;;;;5.20;1.00;;;;;;2260070;61;1022;-87
2021/12/18 15:21:30;434612.00;1.45;749.32;0.00;0.00;0.62;;;;;5.30;1.00;;;;;;2253505;61;1004;-89
2021/12/18 15:23:58;591521.00;1.97;1019.58;0.00;0.00;0.62;;;;;5.90;1.00;;;;;;2259938;61;1418;-87
2021/12/18 15:26:25;589923.00;1.97;1016.82;0.00;0.00;0.62;;;;;6.00;1.00;;;;;;2259918;61;1924;-88
2021/12/18 15:28:52;527421.00;1.76;909.05;0.00;0.00;0.62;;;;;6.00;1.00;;;;;;2259412;61;1061;-88
2021/12/18 15:31:20;698404.00;2.33;1204.47;0.00;0.00;0.62;;;;;6.10;1.00;;;;;;2263273;61;1002;-87
2021/12/18 15:33:48;704604.00;2.35;1215.22;0.00;0.00;0.62;;;;;5.90;1.00;;;;;;2272415;61;1340;-88
2021/12/18 15:36:16;476049.00;1.59;820.60;0.00;0.00;0.62;;;;;5.60;1.00;;;;;;2265565;61;964;-89
2021/12/18 15:38:44;474483.00;1.58;817.90;0.00;0.00;0.62;;;;;5.40;1.00;;;;;;2268727;61;1014;-88
2021/12/18 15:41:15;424708.00;1.42;732.29;0.00;0.00;0.62;;;;;5.50;1.00;;;;;;2272532;61;1032;-88
2021/12/18 15:43:43;361081.00;1.20;622.91;0.00;0.00;0.62;;;;;5.40;1.00;;;;;;2272554;61;1421;-87
2021/12/18 15:46:11;401843.00;1.34;692.97;0.00;0.00;0.62;;;;;5.30;1.00;;;;;;2272565;61;955;-87
2021/12/18 15:48:38;806303.00;2.69;1392.12;0.00;0.00;0.62;;;;;5.20;1.00;;;;;;2272458;61;1979;-87
2021/12/18 15:51:05;560075.00;1.87;965.33;0.00;0.00;0.62;;;;;5.30;1.00;;;;;;2262119;61;959;-88
2021/12/18 15:53:34;576993.00;1.92;994.51;2590.00;0.01;5.11;;;;;5.10;1.00;;;;;;2267816;61;1406;-87
2021/12/18 15:56:02;569527.00;1.90;981.63;32597.00;0.11;57.08;;;;;5.10;1.00;;;;;;2259804;61;958;-88
2021/12/18 15:58:29;551984.00;1.84;951.38;0.00;0.00;0.62;;;;;5.10;1.00;;;;;;2259870;61;1048;-87
2021/12/18 16:00:57;769080.00;2.56;1327.25;64755.00;0.22;112.70;;;;;5.10;1.00;;;;;;2259929;61;1096;-87
2021/12/18 16:03:24;453552.00;1.51;781.89;0.00;0.00;0.62;;;;;5.40;1.00;;;;;;2259945;61;1378;-87
2021/12/18 16:05:51;404395.00;1.35;697.36;0.00;0.00;0.62;;;;;5.80;1.00;;;;;;2259963;61;904;-87
2021/12/18 16:08:19;640227.00;2.13;1103.73;0.00;0.00;0.62;;;;;5.90;1.00;;;;;;2259878;61;1999;-88
2021/12/18 16:10:48;118524552.00;395.08;67447312.00;0.00;0.00;0.62;;;;;6.10;1.00;;;;;;2260511;61;1096;-88
2021/12/18 16:13:17;517271.00;1.72;891.56;0.00;0.00;0.62;;;;;6.20;1.00;;;;;;2263939;61;1397;-88
2021/12/18 16:15:44;475477.00;1.58;819.61;0.00;0.00;0.62;;;;;6.10;1.00;;;;;;2263867;61;1087;-87
2021/12/18 16:18:12;458591.00;1.53;790.56;0.00;0.00;0.62;;;;;5.90;1.00;;;;;;2263962;61;1039;-88
2021/12/18 16:20:40;459332.00;1.53;791.84;0.00;0.00;0.62;;;;;5.80;1.00;;;;;;2268753;61;1001;-88
2021/12/18 16:23:09;550744.00;1.84;949.24;741.00;0.00;1.90;;;;;5.80;1.00;;;;;;2263875;61;1314;-88
2021/12/18 16:25:36;435579.00;1.45;750.98;0.00;0.00;0.62;;;;;6.00;1.00;;;;;;2263828;61;1071;-88
2021/12/18 16:28:07;531203.00;1.77;915.56;0.00;0.00;0.62;;;;;5.90;1.00;;;;;;2257231;61;1927;-87
2021/12/18 16:30:34;496132.00;1.65;855.16;0.00;0.00;0.62;;;;;5.80;1.00;;;;;;2263777;61;1099;-86
2021/12/18 16:33:02;293024.00;0.98;505.93;0.00;0.00;0.62;;;;;6.20;1.00;;;;;;2263962;61;1356;-87
2021/12/18 16:35:29;534993.00;1.78;922.09;0.00;0.00;0.62;;;;;6.20;1.00;;;;;;2263895;61;985;-87
2021/12/18 16:38:06;385587.00;1.29;665.03;0.00;0.00;0.62;;;;;6.20;1.00;;;;;;2263850;61;1022;-88
2021/12/18 16:40:35;529339.00;1.76;912.35;0.00;0.00;0.62;;;;;6.00;1.00;;;;;;2259092;61;1026;-87
2021/12/18 16:43:03;606562.00;2.02;1045.55;0.00;0.00;0.62;;;;;5.90;1.00;;;;;;2265169;61;1258;-87
2021/12/18 16:45:32;532670.00;1.78;918.09;0.00;0.00;0.62;;;;;5.80;1.00;;;;;;2272327;61;914;-88
2021/12/18 16:47:59;562876.00;1.88;970.16;0.00;0.00;0.62;;;;;5.90;1.00;;;;;;2261902;61;1912;-87
2021/12/18 16:50:26;534490.00;1.78;921.23;0.00;0.00;0.62;;;;;5.90;1.00;;;;;;2272281;61;1087;-86
2021/12/18 16:52:54;638970.00;2.13;1101.56;0.00;0.00;0.62;;;;;5.90;1.00;;;;;;2265115;61;1312;-87
2021/12/18 16:55:21;636557.00;2.12;1097.39;0.00;0.00;0.62;;;;;5.90;1.00;;;;;;2272192;61;1164;-88
2021/12/18 16:57:48;586721.00;1.96;1011.30;0.00;0.00;0.62;;;;;6.00;1.00;;;;;;2263577;61;1034;-88
2021/12/18 17:00:19;577852.00;1.93;995.99;0.00;0.00;0.62;;;;;5.50;1.00;;;;;;2253698;61;990;-89
2021/12/18 17:02:48;542967.00;1.81;935.84;0.00;0.00;0.62;;;;;5.80;1.00;;;;;;2255556;61;1349;-88
2021/12/18 17:05:18;656906.00;2.19;1132.59;0.00;0.00;0.62;;;;;5.80;1.00;;;;;;2255603;61;1017;-89
2021/12/18 17:07:45;595193.00;1.98;1025.92;0.00;0.00;0.62;;;;;5.60;1.00;;;;;;2252316;61;2013;-90
2021/12/18 17:10:13;447858.00;1.49;772.10;0.00;0.00;0.62;;;;;5.90;1.00;;;;;;2255615;61;1032;-88
2021/12/18 17:12:41;407351.00;1.36;702.44;0.00;0.00;0.62;;;;;6.30;1.00;;;;;;2247651;61;1350;-88
2021/12/18 18:02:03;104530.00;0.35;181.39;0.00;0.00;0.62;;;;;7.30;1.00;;;;;;2274601;61;977;-85
2021/12/18 19:01:24;32688.00;0.11;57.24;0.00;0.00;0.62;;;;;6.90;1.00;;;;;;2509943;55;3591;31
2021/12/18 19:28:35;264591.00;0.88;457.04;0.00;0.00;0.62;;;;;8.60;1.00;;;;;;2464557;40;3692;31
2021/12/18 19:58:46;289310.00;0.96;499.54;0.00;0.00;0.62;;;;;8.40;1.00;;;;;;2275339;61;934;-85
2021/12/18 21:13:08;149894.00;0.50;259.62;24039.00;0.08;42.26;;;;;8.50;1.00;;;;;;2509494;55;3626;31
2021/12/18 21:23:05;80140.00;0.27;139.28;0.00;0.00;0.62;;;;;8.30;1.00;;;;;;2274612;61;1101;-88
2021/12/18 21:45:29;57702.00;0.19;100.50;0.00;0.00;0.62;;;;;7.60;1.00;;;;;;2274935;61;1355;-86
2021/12/18 21:48:00;288600.00;0.96;498.32;0.00;0.00;0.62;;;;;7.70;1.00;;;;;;2273130;61;1915;-84
2021/12/18 22:00:26;60904.00;0.20;106.04;0.00;0.00;0.62;;;;;9.50;1.00;;;;;;2469712;40;3682;31
2021/12/18 22:15:16;150089.00;0.50;259.96;0.00;0.00;0.62;;;;;7.10;1.00;;;;;;2270680;61;1290;-86
2021/12/18 22:30:07;251062.00;0.84;433.78;0.00;0.00;0.62;;;;;6.30;1.00;;;;;;2271360;61;904;-85
2021/12/18 22:55:29;168768.00;0.56;292.14;0.00;0.00;0.62;;;;;7.40;1.00;;;;;;2506205;55;3976;31
2021/12/18 23:10:25;284446.00;0.95;491.18;0.00;0.00;0.62;;;;;7.10;1.00;;;;;;2278112;61;1331;-86
2021/12/18 23:40:00;1640083.00;5.47;2909.59;122789.00;0.41;212.89;;;;;7.30;1.00;;;;;;2277245;61;1253;-88
2021/12/18 23:42:28;121304184.00;404.35;72309384.00;150105.00;0.50;259.99;;;;;7.00;1.00;;;;;;2275655;61;1806;-89
2021/12/18 23:47:39;1457169.00;4.86;2562.78;55335.00;0.18;96.41;;;;;7.50;1.00;;;;;;2279731;61;1443;-90
2021/12/18 23:50:08;1497933.00;4.99;2639.23;51374.00;0.17;89.56;;;;;7.50;1.00;;;;;;2279755;61;949;-89
2021/12/18 23:52:34;1349405.00;4.50;2362.81;106057.00;0.35;184.03;;;;;7.40;1.00;;;;;;2279773;61;1025;-87
2021/12/18 23:55:03;1218880.00;4.06;2124.39;49132.00;0.16;85.69;;;;;7.30;1.00;;;;;;2272645;61;1962;-89
2021/12/18 23:57:30;1431573.00;4.77;2515.01;177897.00;0.59;307.87;;;;;6.90;1.00;;;;;;2279790;61;1454;-89
2021/12/18 23:59:57;1865910.00;6.22;3352.53;71107.00;0.24;123.67;;;;;7.00;1.00;;;;;;2279639;61;1546;-88
